Time;durP1;ratioP1;P1;durP2;ratioP2;P2;SDS_P1;SDS_P2;PMS_P1;PMS_P2;Temp;Humidity;BMP_temperature;BMP_pressure;BME280_temperature;BME280_humidity;BME280_pressure;Samples;Min_cycle;Max_cycle;Signal;HPM_P1;HPM_P2
2023/01/14 05:32:14;;;;;;;3.65;1.00;;;13.10;86.50;;;;;;5027444;23;20060;-83
2023/01/14 05:34:40;;;;;;;5.40;1.83;;;13.10;86.40;;;;;;4898731;29;20105;-84
2023/01/14 05:37:07;;;;;;;6.55;1.10;;;13.10;86.30;;;;;;4880729;29;20037;-83
2023/01/14 05:39:32;;;;;;;1.08;0.93;;;13.20;86.00;;;;;;4883428;29;20029;-84
2023/01/14 05:47:26;;;;;;;4.05;1.05;;;13.10;85.60;;;;;;4880939;29;20826;-85
2023/01/14 05:49:52;;;;;;;1.90;0.93;;;13.20;85.30;;;;;;4882240;29;20033;-85
2023/01/14 05:52:17;;;;;;;1.20;1.10;;;13.20;85.30;;;;;;4882325;29;20052;-85
2023/01/14 05:54:43;;;;;;;4.82;1.30;;;13.20;85.20;;;;;;4891307;29;20419;-85
2023/01/14 05:57:13;;;;;;;2.05;1.00;;;13.20;84.90;;;;;;4902249;29;20024;-84
2023/01/14 05:59:39;;;;;;;6.63;0.90;;;13.20;84.90;;;;;;4899571;29;20021;-85
2023/01/14 06:07:33;;;;;;;3.28;0.80;;;13.20;84.70;;;;;;4913046;29;20031;-85
2023/01/14 06:09:59;;;;;;;3.03;1.10;;;13.20;84.70;;;;;;4901511;29;20029;-85
2023/01/14 06:12:42;;;;;;;6.95;1.45;;;13.30;84.40;;;;;;4911192;29;20028;-85
2023/01/14 06:15:10;;;;;;;7.00;1.05;;;13.30;84.30;;;;;;4919400;29;20037;-85
2023/01/14 06:17:44;;;;;;;2.05;0.90;;;13.30;84.10;;;;;;4912009;29;20031;-85
2023/01/14 06:20:10;;;;;;;8.55;1.67;;;13.30;84.00;;;;;;4901856;29;20034;-85
2023/01/14 06:22:36;;;;;;;2.92;0.77;;;13.20;84.00;;;;;;4912075;29;20035;-85
2023/01/14 06:25:02;;;;;;;2.47;0.80;;;13.30;83.90;;;;;;4883858;29;20100;-84
2023/01/14 06:27:27;;;;;;;6.32;0.82;;;13.30;83.70;;;;;;4881202;29;20041;-85
2023/01/14 06:29:56;;;;;;;4.88;1.35;;;13.30;83.70;;;;;;4884700;29;20036;-85
2023/01/14 06:32:21;;;;;;;4.30;1.20;;;13.30;83.70;;;;;;4868591;29;20115;-85
2023/01/14 06:34:47;;;;;;;3.75;1.48;;;13.30;83.60;;;;;;4884476;29;20104;-85
2023/01/14 06:37:12;;;;;;;2.42;0.80;;;13.30;83.50;;;;;;4913637;29;20111;-85
2023/01/14 06:39:38;;;;;;;12.63;1.20;;;13.30;83.40;;;;;;4922008;29;20103;-85
2023/01/14 06:42:04;;;;;;;2.15;0.80;;;13.30;83.20;;;;;;4896954;29;20037;-84
2023/01/14 06:44:29;;;;;;;5.72;1.50;;;13.30;83.10;;;;;;4884028;29;20029;-85
2023/01/14 06:46:55;;;;;;;4.82;1.65;;;13.30;83.20;;;;;;4881262;29;20049;-84
2023/01/14 06:49:21;;;;;;;4.68;1.10;;;13.30;83.20;;;;;;4886091;29;20090;-85
2023/01/14 06:51:46;;;;;;;2.17;1.10;;;13.30;83.20;;;;;;4885170;29;20025;-85
2023/01/14 06:54:13;;;;;;;7.68;1.20;;;13.30;83.10;;;;;;4894546;29;20024;-85
2023/01/14 06:56:39;;;;;;;8.65;1.98;;;13.30;83.10;;;;;;4901452;29;20080;-84
2023/01/14 06:59:04;;;;;;;6.70;1.33;;;13.30;83.10;;;;;;4885914;29;20033;-81
2023/01/14 07:01:30;;;;;;;4.60;1.92;;;13.30;83.10;;;;;;4898141;29;20033;-76
2023/01/14 07:03:58;;;;;;;8.77;1.45;;;13.30;82.90;;;;;;4899077;29;20040;-75
2023/01/14 07:06:24;;;;;;;2.97;1.50;;;13.40;82.50;;;;;;4902375;29;20495;-75
2023/01/14 07:08:50;;;;;;;10.18;1.63;;;13.40;81.90;;;;;;4884562;29;20033;-77
2023/01/14 07:11:15;;;;;;;4.38;1.10;;;13.50;81.20;;;;;;4900949;29;20040;-76
2023/01/14 07:13:41;;;;;;;3.20;1.25;;;13.50;81.10;;;;;;4894215;29;20383;-75
2023/01/14 07:16:07;;;;;;;7.43;1.00;;;13.40;80.80;;;;;;4910178;29;20033;-78
2023/01/14 07:18:33;;;;;;;6.18;1.05;;;13.40;81.00;;;;;;4892948;29;20035;-77
2023/01/14 07:21:31;;;;;;;2.35;1.08;;;13.50;81.10;;;;;;4904213;29;20496;-78
2023/01/14 07:23:56;;;;;;;5.35;1.13;;;13.40;80.80;;;;;;4854776;29;20049;-83
2023/01/14 07:26:22;;;;;;;3.63;1.10;;;13.40;80.80;;;;;;4895326;29;20041;-76
2023/01/14 07:28:48;;;;;;;7.05;1.27;;;13.30;80.70;;;;;;4883585;29;20040;-79
2023/01/14 07:31:13;;;;;;;6.97;1.50;;;13.40;80.80;;;;;;4889608;29;20068;-82
2023/01/14 07:33:39;;;;;;;3.85;1.33;;;13.40;80.70;;;;;;4900252;29;20079;-80
2023/01/14 07:36:05;;;;;;;5.82;1.17;;;13.40;80.80;;;;;;4898925;29;20070;-81
2023/01/14 07:38:31;;;;;;;8.10;1.85;;;13.40;80.60;;;;;;4900419;29;20924;-78
2023/01/14 07:40:57;;;;;;;4.72;1.33;;;13.50;80.80;;;;;;4890840;29;20487;-89
2023/01/14 07:43:23;;;;;;;4.38;1.33;;;13.50;80.80;;;;;;4885334;29;20032;-78
2023/01/14 07:45:48;;;;;;;5.32;1.42;;;13.50;80.60;;;;;;4897739;29;20555;-81
2023/01/14 07:48:14;;;;;;;4.60;1.98;;;13.50;80.50;;;;;;4901387;29;20020;-81
2023/01/14 07:50:40;;;;;;;6.72;1.30;;;13.50;80.30;;;;;;4896245;29;20048;-78
2023/01/14 07:53:05;;;;;;;3.72;1.05;;;13.50;80.20;;;;;;4887009;29;20495;-78
2023/01/14 07:55:33;;;;;;;10.52;2.10;;;13.40;80.00;;;;;;4881636;29;20652;-79
2023/01/14 07:57:59;;;;;;;11.90;1.38;;;13.40;80.00;;;;;;4898202;29;20040;-78
2023/01/14 08:00:24;;;;;;;8.85;1.73;;;13.50;80.20;;;;;;4889914;29;20037;-78
2023/01/14 08:02:50;;;;;;;5.90;1.55;;;13.40;80.30;;;;;;4888418;29;20037;-77
2023/01/14 08:05:16;;;;;;;7.15;1.60;;;13.50;80.60;;;;;;4881221;29;20060;-78
2023/01/14 08:07:42;;;;;;;5.75;1.17;;;13.40;80.70;;;;;;4898596;29;20029;-77
2023/01/14 08:10:08;;;;;;;4.15;0.93;;;13.50;80.70;;;;;;4899616;29;20041;-77
2023/01/14 08:12:37;;;;;;;6.65;1.73;;;13.50;80.80;;;;;;4881465;29;20032;-79
2023/01/14 08:15:04;;;;;;;7.80;1.73;;;13.50;81.00;;;;;;4897594;29;20036;-78
2023/01/14 08:17:29;;;;;;;6.32;1.75;;;13.40;81.00;;;;;;4900991;29;20112;-78
2023/01/14 08:19:55;;;;;;;6.93;1.63;;;13.50;81.20;;;;;;4882449;29;20056;-78
2023/01/14 08:22:21;;;;;;;12.05;2.20;;;13.40;81.20;;;;;;4896092;29;20111;-77
2023/01/14 08:24:46;;;;;;;12.27;1.73;;;13.50;81.40;;;;;;4899924;29;20036;-78
2023/01/14 08:27:12;;;;;;;10.55;1.60;;;13.40;81.40;;;;;;4898474;29;20475;-78
2023/01/14 08:29:38;;;;;;;2.55;1.15;;;13.40;81.50;;;;;;4900573;29;20059;-77
2023/01/14 08:32:04;;;;;;;10.25;1.35;;;13.50;81.60;;;;;;4884360;29;20060;-77
2023/01/14 08:34:29;;;;;;;6.75;1.33;;;13.50;81.50;;;;;;4881766;29;20032;-77
2023/01/14 08:36:55;;;;;;;4.38;1.23;;;13.40;81.60;;;;;;4866481;29;20040;-77
2023/01/14 08:39:20;;;;;;;8.82;1.65;;;13.50;81.60;;;;;;4868520;29;20520;-77
2023/01/14 08:41:46;;;;;;;5.00;1.98;;;13.40;81.70;;;;;;4894685;29;20037;-77
2023/01/14 08:44:12;;;;;;;7.00;1.20;;;13.50;81.90;;;;;;4900193;29;20111;-77
2023/01/14 08:46:41;;;;;;;8.82;1.33;;;13.30;82.40;;;;;;4881440;29;20040;-77
2023/01/14 08:49:12;;;;;;;9.20;2.05;;;13.30;82.70;;;;;;4894737;29;20024;-77
2023/01/14 08:51:38;;;;;;;9.02;2.17;;;13.40;82.70;;;;;;4879056;29;20036;-77
2023/01/14 08:54:04;;;;;;;5.30;1.58;;;13.30;82.90;;;;;;4882089;29;20487;-77
2023/01/14 08:56:29;;;;;;;7.63;1.27;;;13.40;83.00;;;;;;4894923;29;20027;-77
2023/01/14 08:58:55;;;;;;;7.95;2.22;;;13.30;83.10;;;;;;4879169;29;20068;-77
2023/01/14 09:01:21;;;;;;;3.58;1.20;;;13.30;83.40;;;;;;4882745;29;20032;-77
2023/01/14 09:03:46;;;;;;;9.07;2.15;;;13.30;83.40;;;;;;4899658;29;20096;-77
2023/01/14 09:06:15;;;;;;;5.47;1.65;;;13.30;83.60;;;;;;4896993;29;20039;-77
2023/01/14 09:17:20;;;;;;;7.30;1.35;;;13.30;84.10;;;;;;4888515;29;20421;-77
2023/01/14 09:19:47;;;;;;;10.10;1.98;;;13.30;84.50;;;;;;4900198;29;20028;-77
2023/01/14 09:22:35;;;;;;;7.00;1.52;;;13.30;84.60;;;;;;4879535;29;20506;-77
2023/01/14 09:25:01;;;;;;;5.22;1.30;;;13.30;84.80;;;;;;4892110;29;20052;-77
2023/01/14 09:27:28;;;;;;;6.90;1.67;;;13.30;84.80;;;;;;4900277;29;20024;-77
2023/01/14 09:29:54;;;;;;;7.30;1.60;;;13.30;85.00;;;;;;4885215;29;20039;-76
2023/01/14 09:32:20;;;;;;;5.45;1.33;;;13.30;85.10;;;;;;4899741;29;20080;-77
2023/01/14 09:34:52;;;;;;;4.22;1.48;;;13.30;85.20;;;;;;4900262;29;20036;-77
2023/01/14 09:37:20;;;;;;;2.25;1.30;;;13.30;85.30;;;;;;4900219;29;20020;-79
2023/01/14 09:39:46;;;;;;;4.05;1.27;;;13.30;85.30;;;;;;4871323;29;20044;-76
2023/01/14 09:42:16;;;;;;;10.50;1.50;;;13.30;85.40;;;;;;4864860;29;20025;-77
2023/01/14 09:44:43;;;;;;;10.10;1.48;;;13.30;85.40;;;;;;4864931;29;20038;-81
2023/01/14 09:47:17;;;;;;;7.57;1.50;;;13.30;85.60;;;;;;4881354;29;20033;-78
2023/01/14 09:49:43;;;;;;;5.88;1.77;;;13.30;85.70;;;;;;4881229;29;20029;-77
2023/01/14 09:52:26;;;;;;;7.22;1.45;;;13.30;85.70;;;;;;4881412;29;20029;-79
2023/01/14 09:55:11;;;;;;;3.72;1.10;;;13.30;85.80;;;;;;4892746;29;20048;-77
2023/01/14 09:57:57;;;;;;;6.40;0.95;;;13.30;86.00;;;;;;4899987;29;20032;-76
2023/01/14 10:00:37;;;;;;;2.90;1.40;;;13.30;86.10;;;;;;4892498;29;20587;-77
2023/01/14 10:03:18;;;;;;;5.18;1.33;;;13.30;86.50;;;;;;4882002;29;20169;-77
2023/01/14 10:05:52;;;;;;;6.88;1.40;;;13.30;86.50;;;;;;4883742;29;20036;-76
2023/01/14 10:08:19;;;;;;;5.22;1.20;;;13.30;86.50;;;;;;4901407;29;20032;-78
2023/01/14 10:10:46;;;;;;;4.40;1.50;;;13.30;86.50;;;;;;4896133;29;20167;-86
2023/01/14 10:13:35;;;;;;;5.53;1.20;;;13.40;86.70;;;;;;4902370;29;20037;-76
2023/01/14 10:16:09;;;;;;;3.80;1.03;;;13.40;86.60;;;;;;4886869;29;20566;-77
2023/01/14 10:18:56;;;;;;;3.50;1.42;;;13.40;86.60;;;;;;4902444;29;20032;-74
2023/01/14 10:21:38;;;;;;;4.38;1.20;;;13.50;86.70;;;;;;4897185;29;20032;-76
2023/01/14 10:24:04;;;;;;;3.40;1.65;;;13.50;86.60;;;;;;4897102;29;20037;-75
2023/01/14 10:26:32;;;;;;;3.67;1.65;;;13.50;86.70;;;;;;4895279;29;20169;-75
2023/01/14 10:29:02;;;;;;;4.32;0.93;;;13.60;86.90;;;;;;4902509;29;20506;-78
2023/01/14 10:31:29;;;;;;;;;;;13.60;86.70;;;;;;4891824;29;20514;-77
2023/01/14 10:33:57;;;;;;;150.43;91.55;;;13.50;86.90;;;;;;4897768;29;19912;-75
2023/01/14 10:36:24;;;;;;;30.85;22.92;;;13.50;87.10;;;;;;4885779;29;20047;-76
2023/01/14 10:38:51;;;;;;;3.78;3.22;;;13.50;87.20;;;;;;4887227;29;20033;-76
2023/01/14 10:41:48;;;;;;;3.83;3.47;;;13.60;87.30;;;;;;4892365;29;20040;-75
2023/01/14 10:44:12;;;;;;;6.70;2.07;;;13.60;87.20;;;;;;4902407;29;20033;-77
2023/01/14 10:46:38;;;;;;;7.15;2.42;;;13.60;87.30;;;;;;4882282;29;20028;-76
2023/01/14 10:49:17;;;;;;;9.88;6.50;;;13.60;87.30;;;;;;4883609;29;20389;-76
2023/01/14 10:51:47;;;;;;;7.10;4.95;;;13.60;87.40;;;;;;4888625;29;20084;-76
2023/01/14 10:54:18;;;;;;;15.95;10.07;;;13.50;87.50;;;;;;4892037;29;20559;-76
2023/01/14 10:56:52;;;;;;;24.30;4.75;;;13.60;87.70;;;;;;4885220;29;20057;-76
2023/01/14 10:59:34;;;;;;;28.33;14.23;;;13.60;87.60;;;;;;4879155;29;20036;-76
2023/01/14 11:02:03;;;;;;;14.95;6.18;;;13.60;87.50;;;;;;4901810;29;20033;-76
2023/01/14 11:04:31;;;;;;;10.65;5.88;;;13.60;87.60;;;;;;4902148;29;20460;-77
2023/01/14 11:06:57;;;;;;;17.08;12.50;;;13.60;87.60;;;;;;4899010;29;20056;-76
2023/01/14 11:09:28;;;;;;;6.55;2.30;;;13.60;87.70;;;;;;4876454;29;20048;-76
2023/01/14 11:11:54;;;;;;;9.43;3.55;;;13.60;87.60;;;;;;4892448;29;20560;-76
2023/01/14 11:14:37;;;;;;;2.67;2.20;;;13.70;87.70;;;;;;4901631;29;20032;-76
2023/01/14 11:17:26;;;;;;;10.25;4.30;;;13.60;87.70;;;;;;4896695;29;20032;-76
2023/01/14 11:20:21;;;;;;;10.57;5.40;;;13.60;87.70;;;;;;4880939;29;20071;-76
2023/01/14 11:23:01;;;;;;;2.20;1.40;;;13.70;87.70;;;;;;4901286;29;20068;-78
2023/01/14 11:25:28;;;;;;;3.78;1.75;;;13.70;87.70;;;;;;4888917;29;20108;-75
2023/01/14 11:27:55;;;;;;;12.27;4.50;;;13.70;87.60;;;;;;4880942;29;20487;-75
2023/01/14 11:30:24;;;;;;;5.18;1.98;;;13.60;87.70;;;;;;4901367;29;20069;-76
2023/01/14 11:32:51;;;;;;;6.93;2.15;;;13.70;87.70;;;;;;4899135;29;20096;-75
2023/01/14 11:35:29;;;;;;;2.33;1.38;;;13.70;87.60;;;;;;4901552;29;20028;-74
2023/01/14 11:37:56;;;;;;;2.92;1.75;;;13.70;87.70;;;;;;4896901;29;20570;-74
2023/01/14 11:43:14;;;;;;;5.32;2.35;;;13.70;87.80;;;;;;4894587;29;20055;-75
2023/01/14 11:45:40;;;;;;;33.35;12.48;;;13.70;87.80;;;;;;4884014;29;20035;-75
2023/01/14 11:48:26;;;;;;;13.25;7.28;;;13.80;87.90;;;;;;4897097;29;20112;-75
2023/01/14 11:51:00;;;;;;;4.18;1.88;;;13.70;87.80;;;;;;4886726;29;20112;-76
2023/01/14 11:53:48;;;;;;;4.38;1.42;;;13.80;87.80;;;;;;4901238;29;20420;-74
2023/01/14 11:56:26;;;;;;;4.45;0.85;;;13.80;87.80;;;;;;4886889;29;20036;-75
2023/01/14 11:58:51;;;;;;;4.47;1.70;;;13.80;87.90;;;;;;4893805;29;20032;-75
2023/01/14 12:01:32;;;;;;;1.58;0.60;;;13.90;88.00;;;;;;4901457;29;20514;-75
2023/01/14 12:04:04;;;;;;;2.58;1.08;;;13.90;87.90;;;;;;4892738;29;20044;-75
2023/01/14 12:06:43;;;;;;;3.15;1.20;;;13.90;87.80;;;;;;4887712;29;20064;-74
2023/01/14 12:09:31;;;;;;;3.55;1.00;;;13.90;87.80;;;;;;4895416;29;20404;-77
2023/01/14 12:12:11;;;;;;;1.52;0.80;;;14.00;87.90;;;;;;4897943;29;20120;-75
2023/01/14 12:17:34;;;;;;;1.38;0.60;;;14.10;87.80;;;;;;4876450;29;20597;-74
2023/01/14 12:20:13;;;;;;;2.30;0.57;;;14.00;87.90;;;;;;4871791;29;20028;-77
2023/01/14 12:23:03;;;;;;;2.15;1.20;;;14.00;88.00;;;;;;4900761;29;20029;-75
2023/01/14 12:25:40;;;;;;;8.50;2.70;;;14.00;88.10;;;;;;4882996;29;20033;-76
2023/01/14 12:28:29;;;;;;;4.35;2.30;;;14.10;88.10;;;;;;4894752;29;20028;-77
2023/01/14 12:31:01;;;;;;;3.70;1.95;;;14.10;88.20;;;;;;4899202;29;20064;-75
2023/01/14 12:33:59;;;;;;;3.30;1.63;;;14.20;88.20;;;;;;4884341;29;20408;-76
2023/01/14 12:36:29;;;;;;;5.30;3.33;;;14.20;88.10;;;;;;4892536;29;20115;-74
2023/01/14 12:47:28;;;;;;;2.60;2.40;;;14.30;88.00;;;;;;4894085;29;20087;-74
2023/01/14 12:49:54;;;;;;;2.47;1.65;;;14.20;88.00;;;;;;4899411;29;20025;-74
2023/01/14 12:52:33;;;;;;;3.88;3.33;;;14.30;88.10;;;;;;4889168;29;20024;-74
2023/01/14 12:55:01;;;;;;;3.37;2.17;;;14.30;88.10;;;;;;4874123;29;20032;-74
2023/01/14 12:57:27;;;;;;;1.70;1.30;;;14.30;88.00;;;;;;4899634;29;20269;-74
2023/01/14 13:00:06;;;;;;;2.97;2.25;;;14.30;88.00;;;;;;4897768;29;20774;-74
2023/01/14 13:02:43;;;;;;;3.63;2.05;;;14.30;88.10;;;;;;4892202;29;20036;-74
2023/01/14 13:05:12;;;;;;;4.32;2.53;;;14.30;88.10;;;;;;4876529;29;20037;-74
2023/01/14 13:07:48;;;;;;;3.07;1.93;;;14.30;88.10;;;;;;4893664;29;20032;-74
2023/01/14 13:10:27;;;;;;;5.70;2.45;;;14.30;88.20;;;;;;4896836;29;20628;-74
2023/01/14 13:12:53;;;;;;;5.03;2.53;;;14.30;88.40;;;;;;4898327;29;20036;-74
2023/01/14 13:15:19;;;;;;;11.45;7.68;;;14.30;88.30;;;;;;4873300;29;20028;-74
2023/01/14 13:17:52;;;;;;;12.43;5.57;;;14.30;88.10;;;;;;4878617;29;20056;-74
2023/01/14 13:20:30;;;;;;;13.90;6.05;;;14.30;88.30;;;;;;4895832;29;20463;-74
2023/01/14 13:23:00;;;;;;;7.40;4.30;;;14.40;88.20;;;;;;4895366;29;20037;-74
2023/01/14 13:25:44;;;;;;;5.70;3.17;;;14.40;88.30;;;;;;4897203;29;20036;-74
2023/01/14 13:28:10;;;;;;;9.25;4.55;;;14.40;88.30;;;;;;4888919;29;20056;-74
2023/01/14 13:30:51;;;;;;;2.15;1.63;;;14.40;88.30;;;;;;4875468;29;20085;-73
2023/01/14 13:33:23;;;;;;;;;;;14.40;88.30;;;;;;4892046;29;20043;-73
2023/01/14 13:36:10;;;;;;;22.42;10.45;;;14.40;88.30;;;;;;4880775;29;19915;-73
2023/01/14 13:38:58;;;;;;;17.08;9.50;;;14.50;88.40;;;;;;4889197;29;20035;-73
2023/01/14 13:41:44;;;;;;;4.88;2.88;;;14.50;88.40;;;;;;4900237;29;20028;-73
2023/01/14 13:44:21;;;;;;;7.10;4.80;;;14.50;88.30;;;;;;4901854;29;20032;-73
2023/01/14 13:46:59;;;;;;;6.38;3.58;;;14.50;88.20;;;;;;4900949;29;20029;-73
2023/01/14 13:49:40;;;;;;;4.85;4.38;;;14.50;88.20;;;;;;4886584;29;20123;-75
2023/01/14 13:52:21;;;;;;;9.63;8.57;;;14.50;88.40;;;;;;4896232;29;20035;-73
2023/01/14 13:54:55;;;;;;;6.35;3.47;;;14.60;88.30;;;;;;4892663;29;20064;-73
2023/01/14 13:57:37;;;;;;;5.20;3.20;;;14.60;88.20;;;;;;4890607;29;20028;-73
2023/01/14 14:00:26;;;;;;;8.75;7.03;;;14.60;88.20;;;;;;4898912;29;20110;-73
2023/01/14 14:03:34;;;;;;;5.28;3.88;;;14.60;88.20;;;;;;4888579;29;20040;-73
2023/01/14 14:06:18;;;;;;;3.05;1.73;;;14.60;88.20;;;;;;4884183;29;20033;-73
2023/01/14 14:09:07;;;;;;;11.68;8.02;;;14.60;88.30;;;;;;4892593;29;20056;-73
2023/01/14 14:11:41;;;;;;;6.45;4.45;;;14.60;88.40;;;;;;4883909;29;20028;-73
2023/01/14 14:14:17;;;;;;;3.83;2.22;;;14.60;88.20;;;;;;4884620;29;20066;-73
2023/01/14 14:16:59;;;;;;;4.88;2.35;;;14.70;88.40;;;;;;4889377;29;20024;-73
2023/01/14 14:19:58;;;;;;;6.30;3.78;;;14.60;88.30;;;;;;4894822;29;20044;-74
2023/01/14 14:22:36;;;;;;;3.45;2.15;;;14.70;88.30;;;;;;4895563;29;20534;-73
2023/01/14 14:25:07;;;;;;;11.52;6.32;;;14.70;88.10;;;;;;4893572;29;20029;-73
2023/01/14 14:27:37;;;;;;;12.90;8.65;;;14.70;88.10;;;;;;4888275;29;20024;-73
2023/01/14 14:30:14;;;;;;;7.45;3.80;;;14.70;88.20;;;;;;4900189;29;20032;-73
2023/01/14 14:32:42;;;;;;;12.40;7.65;;;14.60;88.20;;;;;;4898587;29;20040;-73
2023/01/14 14:35:15;;;;;;;7.20;1.83;;;14.70;88.30;;;;;;4900962;29;20035;-73
2023/01/14 14:37:51;;;;;;;5.13;3.42;;;14.70;88.20;;;;;;4899216;29;20523;-73
2023/01/14 14:40:35;;;;;;;6.20;2.05;;;14.70;88.10;;;;;;4876172;29;20112;-73
2023/01/14 14:43:02;;;;;;;10.32;4.07;;;14.70;88.00;;;;;;4882115;29;20036;-73
2023/01/14 14:45:32;;;;;;;9.50;6.22;;;14.70;88.20;;;;;;4895557;29;20025;-73
2023/01/14 14:47:59;;;;;;;3.13;1.83;;;14.70;88.10;;;;;;4877571;29;20184;-73
2023/01/14 14:50:28;;;;;;;4.53;2.10;;;14.70;88.10;;;;;;4899398;29;20036;-73
2023/01/14 14:52:53;;;;;;;9.23;4.60;;;14.70;88.10;;;;;;4901131;29;20039;-74
2023/01/14 14:55:19;;;;;;;3.13;1.58;;;14.80;88.00;;;;;;4882220;29;20028;-74
2023/01/14 14:57:45;;;;;;;6.07;3.95;;;14.80;88.00;;;;;;4900727;29;20033;-74
2023/01/14 15:00:21;;;;;;;2.50;1.85;;;14.80;88.00;;;;;;4884820;29;20032;-74
2023/01/14 15:02:57;;;;;;;2.38;1.33;;;14.80;88.00;;;;;;4880492;29;20040;-74
2023/01/14 15:05:34;;;;;;;1.58;0.80;;;14.80;87.80;;;;;;4894693;29;20076;-74
2023/01/14 15:08:03;;;;;;;5.60;3.03;;;14.80;87.80;;;;;;4901146;29;20391;-74
2023/01/14 15:10:29;;;;;;;7.00;5.13;;;14.80;87.80;;;;;;4902223;29;20430;-74
2023/01/14 15:12:56;;;;;;;6.43;3.80;;;14.80;87.70;;;;;;4892989;29;20444;-74
2023/01/14 15:15:27;;;;;;;6.28;2.85;;;14.80;87.80;;;;;;4900978;29;20048;-74
2023/01/14 15:18:00;;;;;;;7.07;3.35;;;14.80;87.70;;;;;;4886431;29;20037;-74
2023/01/14 15:20:26;;;;;;;24.50;10.15;;;14.80;87.90;;;;;;4879968;29;20071;-74
2023/01/14 15:22:52;;;;;;;15.55;6.80;;;14.80;87.80;;;;;;4890618;29;20029;-74
2023/01/14 15:25:19;;;;;;;5.68;3.03;;;14.80;87.80;;;;;;4894674;29;20088;-74
2023/01/14 15:27:50;;;;;;;5.72;3.45;;;14.80;87.70;;;;;;4901171;29;20084;-74
2023/01/14 15:30:28;;;;;;;9.00;4.57;;;14.80;87.60;;;;;;4894396;29;20028;-74
2023/01/14 15:32:58;;;;;;;5.15;3.00;;;14.80;87.60;;;;;;4893305;29;20029;-74
2023/01/14 15:35:28;;;;;;;;;;;14.80;87.60;;;;;;4897955;29;20055;-74
2023/01/14 15:38:00;;;;;;;6.28;4.57;;;14.80;87.60;;;;;;4892907;29;20091;-73
2023/01/14 15:40:47;;;;;;;4.70;1.42;;;14.80;87.60;;;;;;4891565;29;20048;-73
2023/01/14 15:43:25;;;;;;;2.88;1.02;;;14.80;87.30;;;;;;4882434;29;20040;-74
2023/01/14 15:45:56;;;;;;;2.10;1.00;;;14.80;87.50;;;;;;4868873;29;20044;-74
2023/01/14 15:48:22;;;;;;;11.35;5.50;;;14.80;87.50;;;;;;4893724;29;20028;-74
2023/01/14 15:51:00;;;;;;;5.75;2.47;;;14.70;87.50;;;;;;4899881;29;20033;-74
2023/01/14 15:53:28;;;;;;;3.33;1.85;;;14.80;87.70;;;;;;4896375;29;20519;-75
2023/01/14 15:56:04;;;;;;;6.57;1.98;;;14.80;87.80;;;;;;4873037;29;20120;-76
2023/01/14 15:58:36;;;;;;;7.22;2.75;;;14.70;87.80;;;;;;4888269;29;20128;-75
2023/01/14 16:01:16;;;;;;;4.55;1.90;;;14.60;86.60;;;;;;4900189;29;20059;-76
2023/01/14 16:03:52;;;;;;;2.03;1.02;;;14.40;86.70;;;;;;4900888;29;20391;-75
2023/01/14 16:06:32;;;;;;;4.00;2.00;;;14.30;85.80;;;;;;4870757;29;20033;-74
2023/01/14 16:09:09;;;;;;;3.38;2.00;;;14.20;85.90;;;;;;4886138;29;20105;-74
2023/01/14 16:11:44;;;;;;;4.13;2.10;;;14.10;85.70;;;;;;4877102;29;20024;-75
2023/01/14 16:14:40;;;;;;;3.17;1.95;;;14.00;85.60;;;;;;4891232;29;20160;-74
2023/01/14 16:17:12;;;;;;;4.07;2.20;;;13.90;85.60;;;;;;4899676;29;20032;-75
2023/01/14 16:19:37;;;;;;;3.13;2.13;;;13.90;85.40;;;;;;4882749;29;20098;-75
2023/01/14 16:22:04;;;;;;;2.65;1.48;;;13.80;85.50;;;;;;4900662;29;20041;-74
2023/01/14 16:24:30;;;;;;;4.13;1.25;;;13.80;85.30;;;;;;4889666;29;20039;-74
2023/01/14 16:26:56;;;;;;;5.18;1.70;;;13.80;85.30;;;;;;4893028;29;20405;-74
2023/01/14 16:29:22;;;;;;;5.68;2.80;;;13.80;85.60;;;;;;4898200;29;20048;-74
2023/01/14 16:31:47;;;;;;;15.60;5.72;;;13.80;85.50;;;;;;4895010;29;20075;-74
2023/01/14 16:34:13;;;;;;;4.30;2.95;;;13.80;85.20;;;;;;4867978;29;20255;-74
2023/01/14 16:36:39;;;;;;;3.47;2.63;;;13.70;85.30;;;;;;4888504;29;20025;-73
2023/01/14 16:39:13;;;;;;;2.58;1.80;;;13.70;85.10;;;;;;4888392;29;20064;-73
2023/01/14 16:41:46;;;;;;;2.60;1.65;;;13.70;85.00;;;;;;4890340;29;20032;-73
2023/01/14 16:44:13;;;;;;;3.80;2.67;;;13.70;85.20;;;;;;4898505;29;20032;-73
2023/01/14 16:46:39;;;;;;;7.35;3.78;;;13.70;84.80;;;;;;4892970;29;20096;-74
2023/01/14 16:49:05;;;;;;;5.47;3.17;;;13.60;85.00;;;;;;4899471;29;20069;-74
2023/01/14 16:51:30;;;;;;;5.45;3.90;;;13.60;84.70;;;;;;4889343;29;20032;-74
2023/01/14 16:53:57;;;;;;;7.68;4.57;;;13.50;84.80;;;;;;4894354;29;20504;-76
2023/01/14 16:56:25;;;;;;;5.78;3.38;;;13.50;84.70;;;;;;4881194;29;20056;-77
2023/01/14 16:58:53;;;;;;;3.75;2.13;;;13.50;84.50;;;;;;4877229;29;20032;-79
2023/01/14 17:01:19;;;;;;;4.65;2.63;;;13.50;84.70;;;;;;4882094;29;20380;-75
2023/01/14 17:03:45;;;;;;;5.40;2.88;;;13.50;84.60;;;;;;4893007;29;20032;-75
2023/01/14 17:06:17;;;;;;;2.08;1.73;;;13.50;84.10;;;;;;4890661;29;20025;-75
2023/01/14 17:08:43;;;;;;;4.80;2.10;;;13.50;84.50;;;;;;4882094;29;20044;-76
2023/01/14 17:12:37;;;;;;;4.15;2.55;;;13.40;84.40;;;;;;4893917;29;20025;-82
2023/01/14 17:13:56;;;;;;;4.75;2.40;;;13.40;84.60;;;;;;4898741;29;20803;-81
2023/01/14 17:16:23;;;;;;;4.20;3.10;;;13.50;84.30;;;;;;4888090;29;20105;-79
2023/01/14 17:19:09;;;;;;;4.68;2.03;;;13.50;84.40;;;;;;4896787;29;20158;-80
2023/01/14 17:21:34;;;;;;;4.18;2.58;;;13.40;84.30;;;;;;4898599;29;20025;-85
2023/01/14 17:24:00;;;;;;;4.05;2.20;;;13.40;84.30;;;;;;4889917;29;20108;-76
2023/01/14 17:26:26;;;;;;;3.45;2.00;;;13.30;83.70;;;;;;4881726;29;20044;-77
2023/01/14 17:28:52;;;;;;;1.88;1.42;;;13.20;83.50;;;;;;4898096;29;20488;-80
2023/01/14 17:31:19;;;;;;;3.75;2.13;;;13.10;83.20;;;;;;4899127;29;20072;-78
2023/01/14 17:33:46;;;;;;;4.07;2.17;;;13.00;83.30;;;;;;4876875;29;20036;-83
2023/01/14 17:36:16;;;;;;;5.25;2.45;;;12.80;83.30;;;;;;4890482;29;20038;-82
2023/01/14 17:38:42;;;;;;;8.13;2.17;;;12.80;83.30;;;;;;4895661;29;20059;-82
2023/01/14 17:43:56;;;;;;;6.95;3.28;;;12.70;83.80;;;;;;4895222;29;20071;-78
2023/01/14 17:46:22;;;;;;;3.95;2.17;;;12.80;84.20;;;;;;4896950;29;20600;-80
2023/01/14 17:48:48;;;;;;;5.28;1.60;;;12.60;84.20;;;;;;4889602;29;20064;-78
2023/01/14 17:51:13;;;;;;;2.65;2.00;;;12.70;84.40;;;;;;4899114;29;20044;-79
2023/01/14 17:53:39;;;;;;;6.88;1.92;;;12.60;84.50;;;;;;4897727;29;20069;-81
2023/01/14 17:56:05;;;;;;;1.42;1.08;;;12.60;84.40;;;;;;4896490;29;20060;-78
2023/01/14 17:58:33;;;;;;;2.05;1.20;;;12.50;84.00;;;;;;4879803;29;20041;-78
2023/01/14 18:01:11;;;;;;;3.15;1.60;;;12.50;84.10;;;;;;4889559;29;20073;-81
2023/01/14 18:03:38;;;;;;;2.80;1.17;;;12.50;83.30;;;;;;4877606;29;20036;-78
2023/01/14 18:06:04;;;;;;;6.00;1.90;;;12.40;83.20;;;;;;4896347;29;20025;-79
2023/01/14 18:08:33;;;;;;;5.03;1.48;;;12.30;82.70;;;;;;4897790;29;20058;-85
2023/01/14 18:11:07;;;;;;;1.92;1.23;;;12.30;82.60;;;;;;4835813;29;20398;-80
2023/01/14 18:13:33;;;;;;;5.13;1.88;;;12.30;82.50;;;;;;4875921;29;20028;-78
2023/01/14 18:16:00;;;;;;;5.13;1.80;;;12.20;82.00;;;;;;4875100;29;20051;-82
2023/01/14 18:18:26;;;;;;;8.57;2.88;;;12.30;82.30;;;;;;4877970;29;20127;-83
2023/01/14 18:21:06;;;;;;;7.47;2.72;;;12.30;82.20;;;;;;4898079;29;20103;-80
2023/01/14 18:23:38;;;;;;;;;;;12.20;80.50;;;;;;4893596;29;20088;-82
2023/01/14 18:26:07;;;;;;;5.55;1.92;;;12.20;81.60;;;;;;4880881;29;19912;-82
2023/01/14 18:28:35;;;;;;;3.88;2.25;;;12.20;81.40;;;;;;4899399;29;20052;-76
2023/01/14 18:31:01;;;;;;;7.68;2.50;;;12.20;81.00;;;;;;4897555;29;20053;-80
2023/01/14 18:33:27;;;;;;;3.22;1.65;;;12.20;81.60;;;;;;4892956;29;20356;-88
2023/01/14 18:35:54;;;;;;;9.23;3.85;;;12.10;81.40;;;;;;4885463;29;20168;-80
2023/01/14 18:38:19;;;;;;;4.57;2.15;;;12.10;81.60;;;;;;4902490;29;20040;-82
2023/01/14 18:40:45;;;;;;;5.70;2.42;;;12.10;81.40;;;;;;4883533;29;20044;-80
2023/01/14 18:43:11;;;;;;;6.53;2.03;;;12.20;80.90;;;;;;4883845;29;20039;-77
2023/01/14 18:45:37;;;;;;;6.10;2.05;;;12.20;81.30;;;;;;4901506;29;20039;-81
2023/01/14 18:48:03;;;;;;;9.48;3.97;;;12.20;81.20;;;;;;4902089;29;20021;-77
2023/01/14 18:50:29;;;;;;;19.95;10.27;;;12.20;81.30;;;;;;4885636;29;20123;-80
2023/01/14 18:52:56;;;;;;;12.13;5.55;;;12.20;81.40;;;;;;4902406;29;20891;-77
2023/01/14 18:55:23;;;;;;;15.85;7.75;;;12.20;81.00;;;;;;4899773;29;20033;-77
2023/01/14 18:57:49;;;;;;;26.85;13.77;;;12.10;80.50;;;;;;4885461;29;20028;-76
2023/01/14 19:00:15;;;;;;;16.92;8.68;;;12.20;81.40;;;;;;4890149;29;20381;-77
2023/01/14 19:02:41;;;;;;;15.55;7.47;;;12.20;81.30;;;;;;4883116;29;20396;-78
2023/01/14 19:05:07;;;;;;;12.70;6.43;;;12.10;80.90;;;;;;4876245;29;20041;-80
2023/01/14 19:07:37;;;;;;;16.98;8.30;;;12.20;81.40;;;;;;4888280;29;20017;-77
2023/01/14 19:10:03;;;;;;;14.23;7.23;;;12.10;81.10;;;;;;4885555;29;20036;-78
2023/01/14 19:12:29;;;;;;;15.23;6.82;;;12.00;80.60;;;;;;4885646;29;20036;-81